sensor_id;sensor_type;location;lat;lon;timestamp;pressure;altitude;pressure_sealevel;temperature;humidity
31096;BME280;17749;51.962;8.560;2023-04-25T05:00:32;99439.19;;;6.17;100.00
31096;BME280;17749;51.962;8.560;2023-04-25T05:03:02;99437.44;;;6.15;100.00
31096;BME280;17749;51.962;8.560;2023-04-25T05:05:51;99432.16;;;6.15;100.00
31096;BME280;17749;51.962;8.560;2023-04-25T05:08:38;99440.03;;;6.19;100.00
31096;BME280;17749;51.962;8.560;2023-04-25T05:11:34;99438.16;;;6.21;100.00
31096;BME280;17749;51.962;8.560;2023-04-25T05:14:13;99445.19;;;6.22;100.00
31096;BME280;17749;51.962;8.560;2023-04-25T05:16:59;99451.47;;;6.19;100.00
31096;BME280;17749;51.962;8.560;2023-04-25T05:19:58;99454.03;;;6.21;100.00
31096;BME280;17749;51.962;8.560;2023-04-25T05:22:59;99454.03;;;6.21;100.00
31096;BME280;17749;51.962;8.560;2023-04-25T05:25:49;99461.06;;;6.22;100.00
31096;BME280;17749;51.962;8.560;2023-04-25T05:28:32;99462.69;;;6.26;100.00
31096;BME280;17749;51.962;8.560;2023-04-25T05:31:11;99467.97;;;6.26;100.00
31096;BME280;17749;51.962;8.560;2023-04-25T05:33:47;99468.84;;;6.26;100.00
31096;BME280;17749;51.962;8.560;2023-04-25T05:36:14;99473.97;;;6.31;100.00
31096;BME280;17749;51.962;8.560;2023-04-25T05:38:43;99460.75;;;6.31;100.00
31096;BME280;17749;51.962;8.560;2023-04-25T05:41:33;99472.97;;;6.35;100.00
31096;BME280;17749;51.962;8.560;2023-04-25T05:44:20;99472.88;;;6.38;100.00
31096;BME280;17749;51.962;8.560;2023-04-25T05:47:01;99469.09;;;6.45;100.00
31096;BME280;17749;51.962;8.560;2023-04-25T05:49:50;99486.59;;;6.49;100.00
31096;BME280;17749;51.962;8.560;2023-04-25T05:52:24;99484.75;;;6.51;100.00
31096;BME280;17749;51.962;8.560;2023-04-25T05:55:06;99484.66;;;6.54;100.00
31096;BME280;17749;51.962;8.560;2023-04-25T05:57:34;99486.28;;;6.58;100.00
31096;BME280;17749;51.962;8.560;2023-04-25T06:00:03;99489.66;;;6.64;100.00
31096;BME280;17749;51.962;8.560;2023-04-25T06:02:43;99493.13;;;6.66;100.00
31096;BME280;17749;51.962;8.560;2023-04-25T06:05:13;99496.53;;;6.68;100.00
31096;BME280;17749;51.962;8.560;2023-04-25T06:07:40;99499.25;;;6.66;100.00
31096;BME280;17749;51.962;8.560;2023-04-25T06:10:08;99494.00;;;6.65;100.00
31096;BME280;17749;51.962;8.560;2023-04-25T06:12:35;99503.59;;;6.69;100.00
31096;BME280;17749;51.962;8.560;2023-04-25T06:15:03;99508.56;;;6.78;100.00
31096;BME280;17749;51.962;8.560;2023-04-25T06:17:49;99503.16;;;6.81;100.00
31096;BME280;17749;51.962;8.560;2023-04-25T06:20:16;99503.16;;;6.81;100.00
31096;BME280;17749;51.962;8.560;2023-04-25T06:22:44;99508.19;;;6.89;100.00
31096;BME280;17749;51.962;8.560;2023-04-25T06:25:11;99502.97;;;6.87;100.00
31096;BME280;17749;51.962;8.560;2023-04-25T06:27:38;99515.34;;;6.87;100.00
31096;BME280;17749;51.962;8.560;2023-04-25T06:30:06;99517.00;;;6.89;100.00
31096;BME280;17749;51.962;8.560;2023-04-25T06:32:33;99520.44;;;6.91;100.00
31096;BME280;17749;51.962;8.560;2023-04-25T06:35:01;99515.16;;;6.91;100.00
31096;BME280;17749;51.962;8.560;2023-04-25T06:37:28;99517.66;;;6.96;100.00
31096;BME280;17749;51.962;8.560;2023-04-25T06:39:55;99513.22;;;6.96;100.00
31096;BME280;17749;51.962;8.560;2023-04-25T06:42:22;99522.72;;;7.02;100.00
31096;BME280;17749;51.962;8.560;2023-04-25T06:44:57;99514.75;;;7.03;100.00
31096;BME280;17749;51.962;8.560;2023-04-25T06:47:24;99525.19;;;7.08;100.00
31096;BME280;17749;51.962;8.560;2023-04-25T06:49:52;99520.75;;;7.09;100.00
31096;BME280;17749;51.962;8.560;2023-04-25T06:52:19;99526.63;;;7.17;100.00
31096;BME280;17749;51.962;8.560;2023-04-25T06:54:47;99527.59;;;7.14;100.00
31096;BME280;17749;51.962;8.560;2023-04-25T06:57:20;99532.78;;;7.17;100.00
31096;BME280;17749;51.962;8.560;2023-04-25T06:59:48;99540.94;;;7.11;100.00
31096;BME280;17749;51.962;8.560;2023-04-25T07:02:15;99539.28;;;7.09;100.00
31096;BME280;17749;51.962;8.560;2023-04-25T07:04:42;99535.75;;;7.08;100.00
31096;BME280;17749;51.962;8.560;2023-04-25T07:07:10;99545.28;;;7.14;100.00
31096;BME280;17749;51.962;8.560;2023-04-25T07:09:44;99543.47;;;7.14;100.00
31096;BME280;17749;51.962;8.560;2023-04-25T07:12:12;99541.53;;;7.19;100.00
31096;BME280;17749;51.962;8.560;2023-04-25T07:14:38;99557.88;;;7.32;100.00
31096;BME280;17749;51.962;8.560;2023-04-25T07:17:07;99547.03;;;7.38;100.00
31096;BME280;17749;51.962;8.560;2023-04-25T07:19:34;99563.38;;;7.51;100.00
31096;BME280;17749;51.962;8.560;2023-04-25T07:22:01;99557.94;;;7.54;100.00
31096;BME280;17749;51.962;8.560;2023-04-25T07:24:32;99557.09;;;7.54;100.00
31096;BME280;17749;51.962;8.560;2023-04-25T07:27:01;99564.75;;;7.61;100.00
31096;BME280;17749;51.962;8.560;2023-04-25T07:29:33;99566.50;;;7.62;100.00
31096;BME280;17749;51.962;8.560;2023-04-25T07:32:04;99555.00;;;7.62;100.00
31096;BME280;17749;51.962;8.560;2023-04-25T07:34:36;99560.84;;;7.72;100.00
31096;BME280;17749;51.962;8.560;2023-04-25T07:37:05;99564.03;;;7.81;100.00
31096;BME280;17749;51.962;8.560;2023-04-25T07:39:49;99568.94;;;7.92;100.00
31096;BME280;17749;51.962;8.560;2023-04-25T07:42:21;99564.72;;;7.86;100.00
31096;BME280;17749;51.962;8.560;2023-04-25T07:44:50;99570.16;;;7.83;100.00
31096;BME280;17749;51.962;8.560;2023-04-25T07:47:18;99571.63;;;7.90;100.00
31096;BME280;17749;51.962;8.560;2023-04-25T07:49:46;99576.94;;;7.90;100.00
31096;BME280;17749;51.962;8.560;2023-04-25T07:52:14;99571.50;;;7.94;100.00
31096;BME280;17749;51.962;8.560;2023-04-25T07:54:47;99583.41;;;8.07;100.00
31096;BME280;17749;51.962;8.560;2023-04-25T07:57:20;99584.56;;;8.00;100.00
31096;BME280;17749;51.962;8.560;2023-04-25T07:59:48;99585.44;;;7.99;100.00
31096;BME280;17749;51.962;8.560;2023-04-25T08:02:17;99572.19;;;7.99;100.00
31096;BME280;17749;51.962;8.560;2023-04-25T08:04:44;99578.75;;;8.12;100.00
31096;BME280;17749;51.962;8.560;2023-04-25T08:07:15;99591.81;;;8.18;100.00
31096;BME280;17749;51.962;8.560;2023-04-25T08:09:50;99594.78;;;8.32;100.00
31096;BME280;17749;51.962;8.560;2023-04-25T08:12:23;99599.25;;;8.54;100.00
31096;BME280;17749;51.962;8.560;2023-04-25T08:14:50;99590.00;;;8.64;100.00
31096;BME280;17749;51.962;8.560;2023-04-25T08:17:17;99591.63;;;8.68;100.00
31096;BME280;17749;51.962;8.560;2023-04-25T08:19:44;99592.19;;;8.76;100.00
31096;BME280;17749;51.962;8.560;2023-04-25T08:22:21;99596.75;;;8.73;100.00
31096;BME280;17749;51.962;8.560;2023-04-25T08:24:58;99598.34;;;8.77;100.00
31096;BME280;17749;51.962;8.560;2023-04-25T08:27:26;99606.06;;;8.83;100.00
31096;BME280;17749;51.962;8.560;2023-04-25T08:29:53;99609.25;;;9.13;100.00
31096;BME280;17749;51.962;8.560;2023-04-25T08:32:20;99612.06;;;9.31;100.00
31096;BME280;17749;51.962;8.560;2023-04-25T08:35:09;99617.22;;;9.34;100.00
31096;BME280;17749;51.962;8.560;2023-04-25T08:37:36;99625.75;;;9.42;100.00
31096;BME280;17749;51.962;8.560;2023-04-25T08:40:12;99629.72;;;9.32;100.00
31096;BME280;17749;51.962;8.560;2023-04-25T08:43:00;99639.22;;;9.37;100.00
31096;BME280;17749;51.962;8.560;2023-04-25T08:45:31;99638.75;;;9.48;100.00
31096;BME280;17749;51.962;8.560;2023-04-25T08:47:59;99647.34;;;9.55;100.00
31096;BME280;17749;51.962;8.560;2023-04-25T08:50:27;99646.16;;;9.62;100.00
31096;BME280;17749;51.962;8.560;2023-04-25T08:52:58;99653.72;;;9.71;100.00
31096;BME280;17749;51.962;8.560;2023-04-25T08:55:29;99642.06;;;9.74;100.00
31096;BME280;17749;51.962;8.560;2023-04-25T08:57:59;99652.72;;;9.74;100.00
31096;BME280;17749;51.962;8.560;2023-04-25T09:00:29;99653.47;;;9.77;100.00
31096;BME280;17749;51.962;8.560;2023-04-25T09:02:58;99657.78;;;9.80;100.00
31096;BME280;17749;51.962;8.560;2023-04-25T09:05:29;99656.69;;;9.63;100.00
31096;BME280;17749;51.962;8.560;2023-04-25T09:07:57;99653.13;;;9.64;100.00
31096;BME280;17749;51.962;8.560;2023-04-25T09:10:25;99660.63;;;9.55;100.00
31096;BME280;17749;51.962;8.560;2023-04-25T09:13:01;99677.31;;;9.58;100.00
31096;BME280;17749;51.962;8.560;2023-04-25T09:18:43;99682.22;;;9.47;100.00
31096;BME280;17749;51.962;8.560;2023-04-25T09:21:14;99677.84;;;9.66;100.00
31096;BME280;17749;51.962;8.560;2023-04-25T09:23:46;99687.78;;;10.23;100.00
31096;BME280;17749;51.962;8.560;2023-04-25T09:26:16;99683.09;;;10.48;100.00
31096;BME280;17749;51.962;8.560;2023-04-25T09:28:47;99690.72;;;10.56;100.00
31096;BME280;17749;51.962;8.560;2023-04-25T09:31:23;99680.78;;;10.41;100.00
31096;BME280;17749;51.962;8.560;2023-04-25T09:34:00;99703.69;;;10.24;100.00
31096;BME280;17749;51.962;8.560;2023-04-25T09:36:38;99695.31;;;9.93;100.00
31096;BME280;17749;51.962;8.560;2023-04-25T09:39:28;99692.75;;;9.91;100.00
31096;BME280;17749;51.962;8.560;2023-04-25T09:42:05;99697.97;;;10.13;100.00
31096;BME280;17749;51.962;8.560;2023-04-25T09:44:33;99695.63;;;10.26;100.00
31096;BME280;17749;51.962;8.560;2023-04-25T09:47:01;99700.13;;;10.44;100.00
31096;BME280;17749;51.962;8.560;2023-04-25T09:49:30;99698.22;;;10.48;100.00
31096;BME280;17749;51.962;8.560;2023-04-25T09:52:03;99695.00;;;10.40;100.00
31096;BME280;17749;51.962;8.560;2023-04-25T09:54:52;99699.81;;;10.31;100.00
31096;BME280;17749;51.962;8.560;2023-04-25T09:57:27;99701.44;;;9.95;100.00
31096;BME280;17749;51.962;8.560;2023-04-25T09:59:56;99709.16;;;10.01;100.00
31096;BME280;17749;51.962;8.560;2023-04-25T10:02:30;99707.22;;;10.04;100.00
31096;BME280;17749;51.962;8.560;2023-04-25T10:05:05;99716.38;;;10.18;100.00
31096;BME280;17749;51.962;8.560;2023-04-25T10:07:38;99703.88;;;10.20;100.00
31096;BME280;17749;51.962;8.560;2023-04-25T10:10:12;99712.94;;;10.16;100.00
31096;BME280;17749;51.962;8.560;2023-04-25T10:12:44;99718.66;;;10.06;100.00
31096;BME280;17749;51.962;8.560;2023-04-25T10:15:14;99723.09;;;10.06;100.00
31096;BME280;17749;51.962;8.560;2023-04-25T10:17:42;99725.72;;;9.87;100.00
31096;BME280;17749;51.962;8.560;2023-04-25T10:20:10;99728.56;;;9.62;100.00
31096;BME280;17749;51.962;8.560;2023-04-25T10:22:44;99728.44;;;9.43;100.00
31096;BME280;17749;51.962;8.560;2023-04-25T10:25:12;99728.53;;;9.41;100.00
31096;BME280;17749;51.962;8.560;2023-04-25T10:27:42;99738.25;;;9.20;100.00
31096;BME280;17749;51.962;8.560;2023-04-25T10:30:11;99740.81;;;9.00;100.00
31096;BME280;17749;51.962;8.560;2023-04-25T10:32:45;99738.19;;;8.76;100.00
31096;BME280;17749;51.962;8.560;2023-04-25T10:35:15;99748.81;;;8.76;100.00
31096;BME280;17749;51.962;8.560;2023-04-25T10:38:05;99745.22;;;8.77;100.00
31096;BME280;17749;51.962;8.560;2023-04-25T10:40:37;99754.00;;;8.80;100.00
31096;BME280;17749;51.962;8.560;2023-04-25T10:43:37;99752.84;;;8.87;100.00
31096;BME280;17749;51.962;8.560;2023-04-25T10:46:22;99746.25;;;8.97;100.00
31096;BME280;17749;51.962;8.560;2023-04-25T10:48:56;99742.06;;;9.13;100.00
31096;BME280;17749;51.962;8.560;2023-04-25T10:51:32;99743.13;;;9.31;100.00
31096;BME280;17749;51.962;8.560;2023-04-25T10:54:19;99752.31;;;9.44;100.00
31096;BME280;17749;51.962;8.560;2023-04-25T10:56:48;99738.56;;;9.55;100.00
31096;BME280;17749;51.962;8.560;2023-04-25T10:59:19;99746.84;;;9.70;100.00
31096;BME280;17749;51.962;8.560;2023-04-25T11:01:48;99750.06;;;9.78;100.00
31096;BME280;17749;51.962;8.560;2023-04-25T11:04:33;99744.59;;;9.81;100.00
31096;BME280;17749;51.962;8.560;2023-04-25T11:07:13;99735.97;;;9.96;100.00
31096;BME280;17749;51.962;8.560;2023-04-25T11:09:47;99736.72;;;10.19;100.00
31096;BME280;17749;51.962;8.560;2023-04-25T11:12:14;99735.06;;;10.16;100.00
31096;BME280;17749;51.962;8.560;2023-04-25T11:14:42;99744.59;;;10.22;100.00
31096;BME280;17749;51.962;8.560;2023-04-25T11:17:10;99744.06;;;10.34;100.00
31096;BME280;17749;51.962;8.560;2023-04-25T11:19:37;99739.34;;;10.41;100.00
31096;BME280;17749;51.962;8.560;2023-04-25T11:22:04;99738.19;;;10.46;100.00
31096;BME280;17749;51.962;8.560;2023-04-25T11:24:34;99745.75;;;10.56;100.00
31096;BME280;17749;51.962;8.560;2023-04-25T11:27:03;99743.34;;;10.70;100.00
31096;BME280;17749;51.962;8.560;2023-04-25T11:29:32;99744.34;;;10.86;100.00
31096;BME280;17749;51.962;8.560;2023-04-25T11:31:59;99748.59;;;10.90;100.00
31096;BME280;17749;51.962;8.560;2023-04-25T11:34:32;99753.63;;;10.96;100.00
31096;BME280;17749;51.962;8.560;2023-04-25T11:37:01;99740.53;;;11.11;100.00
31096;BME280;17749;51.962;8.560;2023-04-25T11:39:29;99734.69;;;11.22;99.68
31096;BME280;17749;51.962;8.560;2023-04-25T11:41:56;99729.25;;;11.23;97.18
31096;BME280;17749;51.962;8.560;2023-04-25T11:44:23;99750.53;;;11.06;98.75
31096;BME280;17749;51.962;8.560;2023-04-25T11:46:50;99754.44;;;10.99;97.03
31096;BME280;17749;51.962;8.560;2023-04-25T11:49:17;99751.91;;;10.95;96.79
31096;BME280;17749;51.962;8.560;2023-04-25T11:51:48;99759.31;;;10.70;94.50
31096;BME280;17749;51.962;8.560;2023-04-25T11:54:15;99764.22;;;10.40;94.38
31096;BME280;17749;51.962;8.560;2023-04-25T11:56:43;99765.66;;;10.28;93.20
31096;BME280;17749;51.962;8.560;2023-04-25T11:59:11;99769.13;;;10.08;95.94
31096;BME280;17749;51.962;8.560;2023-04-25T12:01:41;99773.44;;;9.90;97.28
31096;BME280;17749;51.962;8.560;2023-04-25T12:04:15;99794.94;;;9.63;99.11
31096;BME280;17749;51.962;8.560;2023-04-25T12:06:44;99790.88;;;9.55;100.00
31096;BME280;17749;51.962;8.560;2023-04-25T12:09:18;99792.28;;;9.63;100.00
31096;BME280;17749;51.962;8.560;2023-04-25T12:11:47;99799.03;;;9.72;100.00
31096;BME280;17749;51.962;8.560;2023-04-25T12:14:23;99797.06;;;9.55;100.00
31096;BME280;17749;51.962;8.560;2023-04-25T12:17:02;99795.34;;;9.54;100.00
31096;BME280;17749;51.962;8.560;2023-04-25T12:19:37;99796.78;;;9.61;100.00
31096;BME280;17749;51.962;8.560;2023-04-25T12:22:23;99799.41;;;9.63;100.00
31096;BME280;17749;51.962;8.560;2023-04-25T12:24:50;99796.69;;;9.64;100.00
31096;BME280;17749;51.962;8.560;2023-04-25T12:27:19;99799.09;;;9.71;100.00
31096;BME280;17749;51.962;8.560;2023-04-25T12:29:53;99802.25;;;9.80;100.00
31096;BME280;17749;51.962;8.560;2023-04-25T12:32:21;99802.03;;;9.85;100.00
31096;BME280;17749;51.962;8.560;2023-04-25T12:34:48;99804.03;;;9.80;100.00
31096;BME280;17749;51.962;8.560;2023-04-25T12:37:15;99800.03;;;9.70;100.00
31096;BME280;17749;51.962;8.560;2023-04-25T12:39:42;99797.28;;;9.71;100.00
31096;BME280;17749;51.962;8.560;2023-04-25T12:42:09;99804.53;;;9.68;100.00
31096;BME280;17749;51.962;8.560;2023-04-25T12:44:39;99798.06;;;9.75;100.00
31096;BME280;17749;51.962;8.560;2023-04-25T12:47:06;99789.53;;;9.87;100.00
31096;BME280;17749;51.962;8.560;2023-04-25T12:49:33;99796.38;;;9.93;100.00
31096;BME280;17749;51.962;8.560;2023-04-25T12:52:00;99775.31;;;9.88;100.00
31096;BME280;17749;51.962;8.560;2023-04-25T12:54:27;99783.56;;;10.02;100.00
31096;BME280;17749;51.962;8.560;2023-04-25T12:56:54;99781.84;;;10.22;100.00
31096;BME280;17749;51.962;8.560;2023-04-25T12:59:21;99784.78;;;10.36;100.00
31096;BME280;17749;51.962;8.560;2023-04-25T13:01:48;99782.66;;;10.44;100.00
31096;BME280;17749;51.962;8.560;2023-04-25T13:04:16;99782.25;;;10.53;99.08
31096;BME280;17749;51.962;8.560;2023-04-25T13:06:43;99787.00;;;10.66;98.28
31096;BME280;17749;51.962;8.560;2023-04-25T13:09:10;99787.16;;;10.82;95.97
31096;BME280;17749;51.962;8.560;2023-04-25T13:11:39;99803.75;;;10.88;92.06
31096;BME280;17749;51.962;8.560;2023-04-25T13:14:07;99792.59;;;10.99;92.24
31096;BME280;17749;51.962;8.560;2023-04-25T13:16:34;99789.41;;;11.10;92.50
31096;BME280;17749;51.962;8.560;2023-04-25T13:19:01;99781.50;;;11.27;91.84
31096;BME280;17749;51.962;8.560;2023-04-25T13:21:30;99791.13;;;11.30;91.62
31096;BME280;17749;51.962;8.560;2023-04-25T13:23:59;99787.31;;;11.35;91.19
31096;BME280;17749;51.962;8.560;2023-04-25T13:26:26;99802.81;;;11.27;91.26
31096;BME280;17749;51.962;8.560;2023-04-25T13:28:53;99807.41;;;11.05;94.45
31096;BME280;17749;51.962;8.560;2023-04-25T13:31:20;99815.09;;;10.73;98.97
31096;BME280;17749;51.962;8.560;2023-04-25T13:33:47;99828.66;;;10.48;100.00
31096;BME280;17749;51.962;8.560;2023-04-25T13:36:14;99834.09;;;10.24;100.00
31096;BME280;17749;51.962;8.560;2023-04-25T13:38:41;99819.22;;;10.19;100.00
31096;BME280;17749;51.962;8.560;2023-04-25T13:41:10;99833.44;;;9.97;100.00
31096;BME280;17749;51.962;8.560;2023-04-25T13:43:42;99823.38;;;9.83;100.00
31096;BME280;17749;51.962;8.560;2023-04-25T13:46:09;99837.94;;;9.95;100.00
31096;BME280;17749;51.962;8.560;2023-04-25T13:48:56;99836.59;;;10.07;99.53
31096;BME280;17749;51.962;8.560;2023-04-25T13:51:35;99828.81;;;10.23;99.90
31096;BME280;17749;51.962;8.560;2023-04-25T13:54:02;99832.41;;;10.22;97.44
31096;BME280;17749;51.962;8.560;2023-04-25T13:56:29;99828.88;;;10.21;95.31
31096;BME280;17749;51.962;8.560;2023-04-25T13:58:56;99832.53;;;10.19;94.99
31096;BME280;17749;51.962;8.560;2023-04-25T14:01:23;99825.16;;;10.25;92.89
31096;BME280;17749;51.962;8.560;2023-04-25T14:03:50;99833.56;;;10.37;92.73
31096;BME280;17749;51.962;8.560;2023-04-25T14:06:18;99819.59;;;10.31;91.22
31096;BME280;17749;51.962;8.560;2023-04-25T14:08:50;99818.59;;;10.34;92.74
31096;BME280;17749;51.962;8.560;2023-04-25T14:11:17;99837.75;;;10.42;91.19
31096;BME280;17749;51.962;8.560;2023-04-25T14:13:45;99827.53;;;10.33;90.58
31096;BME280;17749;51.962;8.560;2023-04-25T14:16:12;99834.41;;;10.37;90.11
31096;BME280;17749;51.962;8.560;2023-04-25T14:18:39;99837.66;;;10.45;91.71
31096;BME280;17749;51.962;8.560;2023-04-25T14:21:06;99825.66;;;10.35;91.71
31096;BME280;17749;51.962;8.560;2023-04-25T14:23:33;99817.44;;;10.40;92.83
31096;BME280;17749;51.962;8.560;2023-04-25T14:25:59;99828.72;;;10.46;92.89
31096;BME280;17749;51.962;8.560;2023-04-25T14:28:26;99826.09;;;10.45;91.74
31096;BME280;17749;51.962;8.560;2023-04-25T14:30:53;99824.66;;;10.38;91.69
31096;BME280;17749;51.962;8.560;2023-04-25T14:33:20;99827.66;;;10.30;92.53
31096;BME280;17749;51.962;8.560;2023-04-25T14:35:47;99827.72;;;10.27;92.80
31096;BME280;17749;51.962;8.560;2023-04-25T14:38:14;99825.16;;;10.25;92.76
31096;BME280;17749;51.962;8.560;2023-04-25T14:40:41;99835.66;;;10.30;94.06
31096;BME280;17749;51.962;8.560;2023-04-25T14:43:10;99832.09;;;10.29;92.86
31096;BME280;17749;51.962;8.560;2023-04-25T14:45:37;99839.31;;;10.26;91.47
31096;BME280;17749;51.962;8.560;2023-04-25T14:48:04;99833.19;;;10.24;93.12
31096;BME280;17749;51.962;8.560;2023-04-25T14:50:32;99842.25;;;10.20;92.97
31096;BME280;17749;51.962;8.560;2023-04-25T14:52:59;99835.41;;;10.14;90.45
31096;BME280;17749;51.962;8.560;2023-04-25T14:55:27;99849.41;;;9.97;90.17
31096;BME280;17749;51.962;8.560;2023-04-25T14:57:54;99844.94;;;9.98;91.64
31096;BME280;17749;51.962;8.560;2023-04-25T15:00:23;99852.19;;;9.94;92.98
31096;BME280;17749;51.962;8.560;2023-04-25T15:02:51;99852.47;;;9.88;94.65
31096;BME280;17749;51.962;8.560;2023-04-25T15:05:19;99858.69;;;9.87;98.90
31096;BME280;17749;51.962;8.560;2023-04-25T15:07:46;99851.69;;;9.84;100.00
31096;BME280;17749;51.962;8.560;2023-04-25T15:10:14;99858.09;;;9.80;100.00
31096;BME280;17749;51.962;8.560;2023-04-25T15:12:42;99861.59;;;9.81;100.00
31096;BME280;17749;51.962;8.560;2023-04-25T15:15:13;99863.47;;;9.79;100.00
31096;BME280;17749;51.962;8.560;2023-04-25T15:17:52;99860.00;;;9.77;100.00
31096;BME280;17749;51.962;8.560;2023-04-25T15:20:24;99864.41;;;9.78;100.00
31096;BME280;17749;51.962;8.560;2023-04-25T15:22:51;99867.53;;;9.65;100.00
31096;BME280;17749;51.962;8.560;2023-04-25T15:25:18;99873.59;;;9.69;100.00
31096;BME280;17749;51.962;8.560;2023-04-25T15:27:45;99865.56;;;9.71;100.00
31096;BME280;17749;51.962;8.560;2023-04-25T15:30:15;99870.53;;;9.80;100.00
31096;BME280;17749;51.962;8.560;2023-04-25T15:32:43;99876.69;;;9.80;100.00
31096;BME280;17749;51.962;8.560;2023-04-25T15:35:11;99889.69;;;9.88;100.00
31096;BME280;17749;51.962;8.560;2023-04-25T15:37:38;99889.19;;;9.78;100.00
31096;BME280;17749;51.962;8.560;2023-04-25T15:40:15;99896.91;;;9.62;100.00
31096;BME280;17749;51.962;8.560;2023-04-25T15:42:46;99893.00;;;9.49;100.00
31096;BME280;17749;51.962;8.560;2023-04-25T15:45:14;99894.84;;;9.47;100.00
31096;BME280;17749;51.962;8.560;2023-04-25T15:47:43;99898.44;;;9.46;100.00
31096;BME280;17749;51.962;8.560;2023-04-25T15:50:11;99901.78;;;9.51;100.00
31096;BME280;17749;51.962;8.560;2023-04-25T15:52:38;99901.88;;;9.48;100.00
31096;BME280;17749;51.962;8.560;2023-04-25T15:55:05;99905.72;;;9.41;100.00
31096;BME280;17749;51.962;8.560;2023-04-25T15:57:35;99908.19;;;9.46;100.00
31096;BME280;17749;51.962;8.560;2023-04-25T16:00:04;99899.22;;;9.48;100.00
31096;BME280;17749;51.962;8.560;2023-04-25T16:02:39;99903.97;;;9.40;100.00
31096;BME280;17749;51.962;8.560;2023-04-25T16:05:07;99903.97;;;9.40;100.00
31096;BME280;17749;51.962;8.560;2023-04-25T16:07:36;99909.28;;;9.40;100.00
31096;BME280;17749;51.962;8.560;2023-04-25T16:10:03;99909.16;;;9.43;100.00
31096;BME280;17749;51.962;8.560;2023-04-25T16:12:30;99909.28;;;9.40;100.00
31096;BME280;17749;51.962;8.560;2023-04-25T16:14:57;99907.56;;;9.39;100.00
31096;BME280;17749;51.962;8.560;2023-04-25T16:17:24;99918.22;;;9.39;100.00
31096;BME280;17749;51.962;8.560;2023-04-25T16:19:52;99906.94;;;9.32;100.00
31096;BME280;17749;51.962;8.560;2023-04-25T16:22:19;99914.44;;;9.21;100.00
31096;BME280;17749;51.962;8.560;2023-04-25T16:24:46;99924.34;;;9.17;100.00
31096;BME280;17749;51.962;8.560;2023-04-25T16:27:13;99919.88;;;9.18;100.00
31096;BME280;17749;51.962;8.560;2023-04-25T16:29:40;99920.63;;;9.21;100.00
31096;BME280;17749;51.962;8.560;2023-04-25T16:32:08;99911.63;;;9.26;100.00
31096;BME280;17749;51.962;8.560;2023-04-25T16:34:34;99921.28;;;9.28;100.00
31096;BME280;17749;51.962;8.560;2023-04-25T16:37:01;99913.22;;;9.30;100.00
31096;BME280;17749;51.962;8.560;2023-04-25T16:39:28;99917.69;;;9.29;100.00
31096;BME280;17749;51.962;8.560;2023-04-25T16:41:55;99927.78;;;9.19;100.00
31096;BME280;17749;51.962;8.560;2023-04-25T16:44:22;99929.44;;;8.98;100.00
31096;BME280;17749;51.962;8.560;2023-04-25T16:46:49;99942.97;;;8.67;100.00
31096;BME280;17749;51.962;8.560;2023-04-25T16:49:16;99947.16;;;8.48;100.00
31096;BME280;17749;51.962;8.560;2023-04-25T16:51:44;99946.91;;;8.27;100.00
31096;BME280;17749;51.962;8.560;2023-04-25T16:54:47;99948.34;;;8.11;100.00
31096;BME280;17749;51.962;8.560;2023-04-25T16:57:14;99948.69;;;8.00;100.00
31096;BME280;17749;51.962;8.560;2023-04-25T16:59:41;99942.03;;;7.87;100.00
31096;BME280;17749;51.962;8.560;2023-04-25T17:02:13;99940.34;;;7.84;100.00
31096;BME280;17749;51.962;8.560;2023-04-25T17:04:43;99937.91;;;7.78;100.00
31096;BME280;17749;51.962;8.560;2023-04-25T17:07:10;99935.19;;;7.80;100.00
31096;BME280;17749;51.962;8.560;2023-04-25T17:09:37;99940.56;;;7.78;100.00
31096;BME280;17749;51.962;8.560;2023-04-25T17:12:05;99937.81;;;7.81;100.00
31096;BME280;17749;51.962;8.560;2023-04-25T17:14:32;99937.59;;;7.87;100.00
31096;BME280;17749;51.962;8.560;2023-04-25T17:17:01;99947.16;;;7.93;100.00
31096;BME280;17749;51.962;8.560;2023-04-25T17:19:29;99942.63;;;7.97;100.00
31096;BME280;17749;51.962;8.560;2023-04-25T17:21:57;99945.28;;;7.97;100.00
31096;BME280;17749;51.962;8.560;2023-04-25T17:24:27;99953.13;;;8.00;100.00
31096;BME280;17749;51.962;8.560;2023-04-25T17:26:54;99955.69;;;8.03;100.00
31096;BME280;17749;51.962;8.560;2023-04-25T17:29:22;99948.47;;;8.06;100.00
31096;BME280;17749;51.962;8.560;2023-04-25T17:31:50;99954.69;;;8.07;100.00
31096;BME280;17749;51.962;8.560;2023-04-25T17:34:17;99950.25;;;8.07;100.00
31096;BME280;17749;51.962;8.560;2023-04-25T17:36:44;99958.13;;;8.09;100.00
31096;BME280;17749;51.962;8.560;2023-04-25T17:39:11;99958.13;;;8.09;100.00
31096;BME280;17749;51.962;8.560;2023-04-25T17:41:40;99956.41;;;8.08;100.00
31096;BME280;17749;51.962;8.560;2023-04-25T17:44:07;99956.50;;;8.05;100.00
31096;BME280;17749;51.962;8.560;2023-04-25T17:46:34;99958.34;;;8.03;100.00
31096;BME280;17749;51.962;8.560;2023-04-25T17:49:02;99964.56;;;8.02;100.00
31096;BME280;17749;51.962;8.560;2023-04-25T17:51:29;99965.47;;;8.01;100.00
31096;BME280;17749;51.962;8.560;2023-04-25T17:53:57;99973.41;;;8.01;100.00
31096;BME280;17749;51.962;8.560;2023-04-25T17:56:24;99974.34;;;8.00;100.00
31096;BME280;17749;51.962;8.560;2023-04-25T17:58:53;99969.16;;;7.97;100.00
31096;BME280;17749;51.962;8.560;2023-04-25T18:01:21;99976.28;;;7.95;100.00
31096;BME280;17749;51.962;8.560;2023-04-25T18:03:49;99974.63;;;7.90;100.00
31096;BME280;17749;51.962;8.560;2023-04-25T18:06:17;99980.13;;;7.84;100.00
31096;BME280;17749;51.962;8.560;2023-04-25T18:08:45;99983.88;;;7.77;100.00
31096;BME280;17749;51.962;8.560;2023-04-25T18:11:12;99988.63;;;7.66;100.00
31096;BME280;17749;51.962;8.560;2023-04-25T18:13:40;99991.53;;;7.57;100.00
31096;BME280;17749;51.962;8.560;2023-04-25T18:16:07;99999.72;;;7.49;100.00
31096;BME280;17749;51.962;8.560;2023-04-25T18:18:34;99990.25;;;7.42;100.00
31096;BME280;17749;51.962;8.560;2023-04-25T18:21:03;99995.75;;;7.34;100.00